Terminal Aerodrome Forecast
Issued by NWS

Home | Current Version | Previous Version | Text Only | Print | Product List | Glossary On
Versions: 1 2 3 4 5 6 7 8 9 10 11 12 13 14 15 16 17
000
FTUS46 KSGX 181700
TAFSNA
TAF
KSNA 181720Z 1818/1918 22008KT P6SM VCSH FEW030 SCT080
     FM182100 22009KT P6SM SCT030 SCT080
     FM190100 VRB04KT P6SM SCT030
      TEMPO 1908/1912 BKN030=

USA.gov is the U.S. government's official web portal to all federal, state and local government web resources and services.